sensor_id;sensor_type;location;lat;lon;timestamp;pressure;altitude;pressure_sealevel;temperature;humidity
59829;BME280;45708;51.848;107.620;2023-11-21T00:04:26;95100.41;;;-9.41;69.94
59829;BME280;45708;51.848;107.620;2023-11-21T00:09:27;95096.31;;;-9.44;69.71
59829;BME280;45708;51.848;107.620;2023-11-21T00:14:28;95101.72;;;-9.48;69.10
59829;BME280;45708;51.848;107.620;2023-11-21T00:19:29;95114.19;;;-9.57;69.56
59829;BME280;45708;51.848;107.620;2023-11-21T00:24:29;95129.75;;;-9.47;70.07
59829;BME280;45708;51.848;107.620;2023-11-21T00:29:30;95142.94;;;-9.53;70.28
59829;BME280;45708;51.848;107.620;2023-11-21T00:34:32;95120.69;;;-9.65;69.64
59829;BME280;45708;51.848;107.620;2023-11-21T00:39:32;95135.81;;;-9.62;68.85
59829;BME280;45708;51.848;107.620;2023-11-21T00:44:33;95139.50;;;-9.66;69.11
59829;BME280;45708;51.848;107.620;2023-11-21T00:49:34;95132.50;;;-9.77;69.19
59829;BME280;45708;51.848;107.620;2023-11-21T00:54:35;95111.84;;;-10.01;69.30
59829;BME280;45708;51.848;107.620;2023-11-21T00:59:36;95140.81;;;-9.88;70.17
59829;BME280;45708;51.848;107.620;2023-11-21T01:04:37;95132.97;;;-9.85;69.60
59829;BME280;45708;51.848;107.620;2023-11-21T01:09:37;95135.91;;;-9.91;69.78
59829;BME280;45708;51.848;107.620;2023-11-21T01:14:38;95131.38;;;-10.00;69.94
59829;BME280;45708;51.848;107.620;2023-11-21T01:19:39;95136.47;;;-10.00;70.15
59829;BME280;45708;51.848;107.620;2023-11-21T01:24:40;95122.78;;;-9.99;70.54
59829;BME280;45708;51.848;107.620;2023-11-21T01:29:40;95140.78;;;-9.59;69.51
59829;BME280;45708;51.848;107.620;2023-11-21T01:34:41;95141.06;;;-9.24;69.79
59829;BME280;45708;51.848;107.620;2023-11-21T01:39:43;95127.00;;;-9.04;69.29
59829;BME280;45708;51.848;107.620;2023-11-21T01:44:43;95116.50;;;-9.27;69.79
59829;BME280;45708;51.848;107.620;2023-11-21T01:49:45;95140.78;;;-9.46;70.08
59829;BME280;45708;51.848;107.620;2023-11-21T01:54:46;95143.69;;;-9.65;69.10
59829;BME280;45708;51.848;107.620;2023-11-21T01:59:48;95144.19;;;-9.73;69.78
59829;BME280;45708;51.848;107.620;2023-11-21T02:04:49;95141.09;;;-9.78;69.93
59829;BME280;45708;51.848;107.620;2023-11-21T02:09:50;95151.94;;;-9.74;70.15
59829;BME280;45708;51.848;107.620;2023-11-21T02:14:51;95146.50;;;-9.56;69.67
59829;BME280;45708;51.848;107.620;2023-11-21T02:19:52;95140.03;;;-9.34;69.68
59829;BME280;45708;51.848;107.620;2023-11-21T02:24:52;95139.41;;;-8.98;69.30
59829;BME280;45708;51.848;107.620;2023-11-21T02:29:53;95123.97;;;-8.71;69.87
59829;BME280;45708;51.848;107.620;2023-11-21T02:34:54;95105.53;;;-8.64;69.57
59829;BME280;45708;51.848;107.620;2023-11-21T02:39:55;95103.06;;;-8.40;68.81
59829;BME280;45708;51.848;107.620;2023-11-21T02:44:56;95118.38;;;-8.27;69.31
59829;BME280;45708;51.848;107.620;2023-11-21T02:49:56;95109.56;;;-8.23;68.93
59829;BME280;45708;51.848;107.620;2023-11-21T02:54:57;95105.78;;;-8.17;69.36
59829;BME280;45708;51.848;107.620;2023-11-21T02:59:58;95111.78;;;-8.06;69.08
59829;BME280;45708;51.848;107.620;2023-11-21T03:04:59;95108.50;;;-7.95;68.70
59829;BME280;45708;51.848;107.620;2023-11-21T03:10:00;95047.31;;;-8.36;68.67
59829;BME280;45708;51.848;107.620;2023-11-21T03:15:00;95106.16;;;-7.98;68.60
59829;BME280;45708;51.848;107.620;2023-11-21T03:20:02;95101.94;;;-7.99;68.08
59829;BME280;45708;51.848;107.620;2023-11-21T03:25:03;95103.31;;;-7.82;67.66
59829;BME280;45708;51.848;107.620;2023-11-21T03:30:04;95098.13;;;-7.57;68.54
59829;BME280;45708;51.848;107.620;2023-11-21T03:35:05;95091.22;;;-7.32;67.80
59829;BME280;45708;51.848;107.620;2023-11-21T03:40:07;95084.81;;;-6.92;67.40
59829;BME280;45708;51.848;107.620;2023-11-21T03:45:08;95080.56;;;-6.58;66.65
59829;BME280;45708;51.848;107.620;2023-11-21T03:50:09;95074.56;;;-6.02;67.48
59829;BME280;45708;51.848;107.620;2023-11-21T03:55:10;95081.03;;;-5.97;66.16
59829;BME280;45708;51.848;107.620;2023-11-21T04:00:11;95018.88;;;-6.47;65.65
59829;BME280;45708;51.848;107.620;2023-11-21T04:05:12;95073.66;;;-6.13;66.82
59829;BME280;45708;51.848;107.620;2023-11-21T04:10:13;95073.44;;;-5.98;65.82
59829;BME280;45708;51.848;107.620;2023-11-21T04:15:14;95073.75;;;-5.92;65.69
59829;BME280;45708;51.848;107.620;2023-11-21T04:20:15;95072.66;;;-5.78;65.60
59829;BME280;45708;51.848;107.620;2023-11-21T04:25:16;95063.66;;;-5.84;65.40
59829;BME280;45708;51.848;107.620;2023-11-21T04:30:17;95041.44;;;-5.85;66.18
59829;BME280;45708;51.848;107.620;2023-11-21T04:35:17;95068.66;;;-5.60;65.00
59829;BME280;45708;51.848;107.620;2023-11-21T04:40:18;95054.72;;;-5.57;65.29
59829;BME280;45708;51.848;107.620;2023-11-21T04:45:19;95051.53;;;-5.49;65.80
59829;BME280;45708;51.848;107.620;2023-11-21T04:50:20;95040.28;;;-5.48;65.73
59829;BME280;45708;51.848;107.620;2023-11-21T04:55:21;95027.91;;;-5.55;64.62
59829;BME280;45708;51.848;107.620;2023-11-21T05:00:22;95026.44;;;-5.36;65.09
59829;BME280;45708;51.848;107.620;2023-11-21T05:05:22;95012.41;;;-5.43;64.57
59829;BME280;45708;51.848;107.620;2023-11-21T05:10:23;95014.69;;;-5.61;64.89
59829;BME280;45708;51.848;107.620;2023-11-21T05:15:24;95009.78;;;-5.53;64.45
59829;BME280;45708;51.848;107.620;2023-11-21T05:20:25;95007.31;;;-5.55;65.08
59829;BME280;45708;51.848;107.620;2023-11-21T05:25:25;95006.72;;;-5.26;64.21
59829;BME280;45708;51.848;107.620;2023-11-21T05:30:26;95009.56;;;-5.08;64.10
59829;BME280;45708;51.848;107.620;2023-11-21T05:35:27;95009.63;;;-4.99;63.88
59829;BME280;45708;51.848;107.620;2023-11-21T05:40:28;95004.06;;;-4.73;63.71
59829;BME280;45708;51.848;107.620;2023-11-21T05:45:29;95005.16;;;-4.66;63.48
59829;BME280;45708;51.848;107.620;2023-11-21T05:50:29;95013.94;;;-4.48;62.98
59829;BME280;45708;51.848;107.620;2023-11-21T05:55:30;95009.88;;;-4.41;62.69
59829;BME280;45708;51.848;107.620;2023-11-21T06:00:31;95006.41;;;-4.40;62.89
59829;BME280;45708;51.848;107.620;2023-11-21T06:05:32;95009.13;;;-4.32;62.81
59829;BME280;45708;51.848;107.620;2023-11-21T06:10:33;95005.81;;;-4.43;62.78
59829;BME280;45708;51.848;107.620;2023-11-21T06:15:34;95006.88;;;-4.46;63.20
59829;BME280;45708;51.848;107.620;2023-11-21T06:20:35;95007.94;;;-4.58;63.58
59829;BME280;45708;51.848;107.620;2023-11-21T06:25:36;95022.28;;;-4.65;63.74
59829;BME280;45708;51.848;107.620;2023-11-21T06:30:37;95013.06;;;-4.88;64.45
59829;BME280;45708;51.848;107.620;2023-11-21T06:35:37;95030.56;;;-4.82;64.30
59829;BME280;45708;51.848;107.620;2023-11-21T06:40:38;95018.31;;;-4.69;64.89
59829;BME280;45708;51.848;107.620;2023-11-21T06:45:39;95013.50;;;-4.83;64.75
59829;BME280;45708;51.848;107.620;2023-11-21T06:50:40;95024.13;;;-4.77;65.19
59829;BME280;45708;51.848;107.620;2023-11-21T06:55:41;95021.69;;;-4.78;66.17
59829;BME280;45708;51.848;107.620;2023-11-21T07:00:42;95018.41;;;-4.80;65.59
59829;BME280;45708;51.848;107.620;2023-11-21T07:05:42;95022.72;;;-5.02;65.96
59829;BME280;45708;51.848;107.620;2023-11-21T07:10:43;95012.13;;;-5.29;67.12
59829;BME280;45708;51.848;107.620;2023-11-21T07:15:44;95004.47;;;-5.40;67.03
59829;BME280;45708;51.848;107.620;2023-11-21T07:20:45;95026.75;;;-5.30;67.09
59829;BME280;45708;51.848;107.620;2023-11-21T07:25:47;95012.38;;;-5.32;67.38
59829;BME280;45708;51.848;107.620;2023-11-21T07:30:48;95028.63;;;-5.32;68.02
59829;BME280;45708;51.848;107.620;2023-11-21T07:35:49;95033.00;;;-5.43;67.96
59829;BME280;45708;51.848;107.620;2023-11-21T07:40:49;95037.22;;;-5.42;67.69
59829;BME280;45708;51.848;107.620;2023-11-21T07:45:50;95027.84;;;-5.43;68.54
59829;BME280;45708;51.848;107.620;2023-11-21T07:50:51;95038.47;;;-5.58;67.73
59829;BME280;45708;51.848;107.620;2023-11-21T07:55:52;95047.94;;;-5.58;68.05
59829;BME280;45708;51.848;107.620;2023-11-21T08:00:53;95053.41;;;-5.52;68.62
59829;BME280;45708;51.848;107.620;2023-11-21T08:05:53;95064.63;;;-5.53;68.16
59829;BME280;45708;51.848;107.620;2023-11-21T08:10:55;95066.78;;;-5.69;68.90
59829;BME280;45708;51.848;107.620;2023-11-21T08:15:56;95083.84;;;-5.68;68.99
59829;BME280;45708;51.848;107.620;2023-11-21T08:20:57;95081.31;;;-5.79;69.54
59829;BME280;45708;51.848;107.620;2023-11-21T08:25:58;95091.13;;;-5.84;70.25
59829;BME280;45708;51.848;107.620;2023-11-21T08:31:01;95103.13;;;-5.94;69.67
59829;BME280;45708;51.848;107.620;2023-11-21T08:36:07;95107.38;;;-5.84;69.50
59829;BME280;45708;51.848;107.620;2023-11-21T08:41:08;95108.88;;;-5.81;69.71
59829;BME280;45708;51.848;107.620;2023-11-21T08:46:09;95126.13;;;-5.93;70.77
59829;BME280;45708;51.848;107.620;2023-11-21T08:51:10;95132.09;;;-5.92;70.96
59829;BME280;45708;51.848;107.620;2023-11-21T08:56:14;95134.16;;;-5.86;70.59
59829;BME280;45708;51.848;107.620;2023-11-21T09:01:15;95143.06;;;-5.79;70.23
59829;BME280;45708;51.848;107.620;2023-11-21T09:06:16;95154.25;;;-5.69;70.14
59829;BME280;45708;51.848;107.620;2023-11-21T09:11:17;95162.56;;;-5.65;70.53
59829;BME280;45708;51.848;107.620;2023-11-21T09:16:18;95175.31;;;-5.64;70.95
59829;BME280;45708;51.848;107.620;2023-11-21T09:21:19;95169.94;;;-5.72;70.89
59829;BME280;45708;51.848;107.620;2023-11-21T09:26:19;95189.47;;;-5.69;71.05
59829;BME280;45708;51.848;107.620;2023-11-21T09:31:20;95198.47;;;-5.75;71.82
59829;BME280;45708;51.848;107.620;2023-11-21T09:36:21;95196.03;;;-5.76;72.09
59829;BME280;45708;51.848;107.620;2023-11-21T09:41:34;95188.75;;;-5.83;71.19
59829;BME280;45708;51.848;107.620;2023-11-21T09:46:41;95196.16;;;-5.78;72.26
59829;BME280;45708;51.848;107.620;2023-11-21T09:51:43;95181.78;;;-5.92;72.14
59829;BME280;45708;51.848;107.620;2023-11-21T09:56:44;95200.59;;;-5.91;71.30
59829;BME280;45708;51.848;107.620;2023-11-21T10:01:45;95202.72;;;-5.96;71.88
59829;BME280;45708;51.848;107.620;2023-11-21T10:06:46;95214.41;;;-5.92;71.96
59829;BME280;45708;51.848;107.620;2023-11-21T10:11:49;95228.44;;;-5.96;71.75
59829;BME280;45708;51.848;107.620;2023-11-21T10:16:51;95244.56;;;-5.94;72.44
59829;BME280;45708;51.848;107.620;2023-11-21T10:21:53;95252.06;;;-5.91;72.34
59829;BME280;45708;51.848;107.620;2023-11-21T10:26:54;95280.34;;;-5.80;72.45
59829;BME280;45708;51.848;107.620;2023-11-21T10:31:55;95282.19;;;-5.82;72.06
59829;BME280;45708;51.848;107.620;2023-11-21T10:36:56;95288.53;;;-5.75;71.89
59829;BME280;45708;51.848;107.620;2023-11-21T10:41:57;95305.38;;;-5.71;72.67
59829;BME280;45708;51.848;107.620;2023-11-21T10:46:57;95308.88;;;-5.72;71.98
59829;BME280;45708;51.848;107.620;2023-11-21T10:52:00;95315.16;;;-5.87;71.99
59829;BME280;45708;51.848;107.620;2023-11-21T10:57:03;95309.53;;;-6.03;72.59
59829;BME280;45708;51.848;107.620;2023-11-21T11:02:25;95331.53;;;-5.99;73.04
59829;BME280;45708;51.848;107.620;2023-11-21T11:07:27;95332.78;;;-6.05;72.15
59829;BME280;45708;51.848;107.620;2023-11-21T11:12:28;95339.81;;;-6.07;72.68
59829;BME280;45708;51.848;107.620;2023-11-21T11:17:29;95366.13;;;-6.03;72.44
59829;BME280;45708;51.848;107.620;2023-11-21T11:28:07;95375.34;;;-6.01;72.24
59829;BME280;45708;51.848;107.620;2023-11-21T11:33:25;95388.13;;;-5.99;73.70
59829;BME280;45708;51.848;107.620;2023-11-21T11:38:33;95395.72;;;-5.98;72.68
59829;BME280;45708;51.848;107.620;2023-11-21T11:43:34;95421.44;;;-5.98;72.37
59829;BME280;45708;51.848;107.620;2023-11-21T11:48:39;95427.72;;;-6.02;72.39
59829;BME280;45708;51.848;107.620;2023-11-21T11:53:41;95424.22;;;-6.25;72.60
59829;BME280;45708;51.848;107.620;2023-11-21T11:58:43;95367.00;;;-6.63;73.16
59829;BME280;45708;51.848;107.620;2023-11-21T12:03:44;95423.25;;;-6.35;72.94
59829;BME280;45708;51.848;107.620;2023-11-21T12:08:45;95434.22;;;-6.33;73.56
59829;BME280;45708;51.848;107.620;2023-11-21T12:13:46;95392.69;;;-6.63;72.81
59829;BME280;45708;51.848;107.620;2023-11-21T12:18:47;95447.91;;;-6.32;72.48
59829;BME280;45708;51.848;107.620;2023-11-21T12:23:48;95466.44;;;-6.40;72.50
59829;BME280;45708;51.848;107.620;2023-11-21T12:28:53;95475.50;;;-6.47;72.93
59829;BME280;45708;51.848;107.620;2023-11-21T12:33:54;95480.03;;;-6.51;73.23
59829;BME280;45708;51.848;107.620;2023-11-21T12:38:55;95485.00;;;-6.60;73.50
59829;BME280;45708;51.848;107.620;2023-11-21T12:43:56;95494.13;;;-6.56;72.29
59829;BME280;45708;51.848;107.620;2023-11-21T12:48:57;95506.75;;;-6.53;73.43
59829;BME280;45708;51.848;107.620;2023-11-21T12:53:58;95517.25;;;-6.56;72.99
59829;BME280;45708;51.848;107.620;2023-11-21T12:59:00;95507.09;;;-6.70;72.40
59829;BME280;45708;51.848;107.620;2023-11-21T13:04:01;95544.38;;;-6.52;72.37
59829;BME280;45708;51.848;107.620;2023-11-21T13:09:02;95536.16;;;-6.57;71.61
59829;BME280;45708;51.848;107.620;2023-11-21T13:14:03;95547.88;;;-6.53;72.21
59829;BME280;45708;51.848;107.620;2023-11-21T13:19:04;95562.47;;;-6.54;72.10
59829;BME280;45708;51.848;107.620;2023-11-21T13:24:05;95577.19;;;-6.56;72.78
59829;BME280;45708;51.848;107.620;2023-11-21T13:29:06;95574.19;;;-6.62;72.20
59829;BME280;45708;51.848;107.620;2023-11-21T13:34:07;95576.66;;;-6.73;72.52
59829;BME280;45708;51.848;107.620;2023-11-21T13:39:08;95464.81;;;-7.68;72.16
59829;BME280;45708;51.848;107.620;2023-11-21T13:44:08;95583.41;;;-6.98;72.35
59829;BME280;45708;51.848;107.620;2023-11-21T13:49:09;95605.97;;;-7.03;72.03
59829;BME280;45708;51.848;107.620;2023-11-21T13:54:10;95590.31;;;-7.25;71.35
59829;BME280;45708;51.848;107.620;2023-11-21T13:59:11;95593.50;;;-7.34;71.36
59829;BME280;45708;51.848;107.620;2023-11-21T14:04:12;95619.88;;;-7.32;71.02
59829;BME280;45708;51.848;107.620;2023-11-21T14:09:14;95624.69;;;-7.41;70.70
59829;BME280;45708;51.848;107.620;2023-11-21T14:14:15;95636.34;;;-7.49;70.30
59829;BME280;45708;51.848;107.620;2023-11-21T14:19:15;95631.06;;;-7.60;70.52
59829;BME280;45708;51.848;107.620;2023-11-21T14:24:16;95645.44;;;-7.58;70.22
59829;BME280;45708;51.848;107.620;2023-11-21T14:29:18;95654.06;;;-7.59;70.03
59829;BME280;45708;51.848;107.620;2023-11-21T14:34:19;95666.31;;;-7.64;70.37
59829;BME280;45708;51.848;107.620;2023-11-21T14:39:20;95680.06;;;-7.65;70.35
59829;BME280;45708;51.848;107.620;2023-11-21T14:44:21;95678.81;;;-7.72;70.39
59829;BME280;45708;51.848;107.620;2023-11-21T14:49:22;95677.72;;;-7.82;69.92
59829;BME280;45708;51.848;107.620;2023-11-21T14:54:23;95688.44;;;-7.90;69.97
59829;BME280;45708;51.848;107.620;2023-11-21T14:59:24;95697.63;;;-8.00;69.94
59829;BME280;45708;51.848;107.620;2023-11-21T15:04:25;95721.66;;;-8.03;69.55
59829;BME280;45708;51.848;107.620;2023-11-21T15:09:26;95740.53;;;-8.04;69.23
59829;BME280;45708;51.848;107.620;2023-11-21T15:14:28;95749.31;;;-8.08;69.79
59829;BME280;45708;51.848;107.620;2023-11-21T15:19:28;95750.78;;;-8.18;69.48
59829;BME280;45708;51.848;107.620;2023-11-21T15:24:29;95768.16;;;-8.37;68.81
59829;BME280;45708;51.848;107.620;2023-11-21T15:29:30;95766.97;;;-8.62;68.40
59829;BME280;45708;51.848;107.620;2023-11-21T15:34:31;95789.06;;;-8.75;68.45
59829;BME280;45708;51.848;107.620;2023-11-21T15:39:32;95803.44;;;-8.88;68.19
59829;BME280;45708;51.848;107.620;2023-11-21T15:44:33;95814.38;;;-9.00;67.56
59829;BME280;45708;51.848;107.620;2023-11-21T15:49:34;95828.56;;;-9.10;67.74
59829;BME280;45708;51.848;107.620;2023-11-21T15:54:35;95828.16;;;-9.18;67.34
59829;BME280;45708;51.848;107.620;2023-11-21T15:59:40;95848.19;;;-9.27;66.60
59829;BME280;45708;51.848;107.620;2023-11-21T16:04:41;95850.50;;;-9.38;66.24
59829;BME280;45708;51.848;107.620;2023-11-21T16:09:41;95860.88;;;-9.41;66.18
59829;BME280;45708;51.848;107.620;2023-11-21T16:14:42;95880.16;;;-9.51;65.40
59829;BME280;45708;51.848;107.620;2023-11-21T16:19:43;95866.94;;;-9.59;65.32
59829;BME280;45708;51.848;107.620;2023-11-21T16:24:45;95875.81;;;-9.66;65.09
59829;BME280;45708;51.848;107.620;2023-11-21T16:29:46;95894.94;;;-9.73;65.60
59829;BME280;45708;51.848;107.620;2023-11-21T16:34:50;95889.66;;;-9.88;64.51
59829;BME280;45708;51.848;107.620;2023-11-21T16:39:51;95917.03;;;-9.90;64.14
59829;BME280;45708;51.848;107.620;2023-11-21T16:44:52;95930.28;;;-9.99;63.32
59829;BME280;45708;51.848;107.620;2023-11-21T16:49:53;95931.44;;;-10.06;64.53
59829;BME280;45708;51.848;107.620;2023-11-21T16:54:54;95931.00;;;-10.14;62.97
59829;BME280;45708;51.848;107.620;2023-11-21T16:59:55;95933.09;;;-10.22;63.65
59829;BME280;45708;51.848;107.620;2023-11-21T17:04:55;95954.06;;;-10.33;62.55
59829;BME280;45708;51.848;107.620;2023-11-21T17:09:56;95961.44;;;-10.46;62.51
59829;BME280;45708;51.848;107.620;2023-11-21T17:14:57;95953.34;;;-10.72;61.88
59829;BME280;45708;51.848;107.620;2023-11-21T17:19:58;95984.78;;;-10.72;61.86
59829;BME280;45708;51.848;107.620;2023-11-21T17:24:59;95980.50;;;-10.90;60.74
59829;BME280;45708;51.848;107.620;2023-11-21T17:30:00;95975.16;;;-11.05;60.97
59829;BME280;45708;51.848;107.620;2023-11-21T17:35:00;95987.44;;;-11.13;61.71
59829;BME280;45708;51.848;107.620;2023-11-21T17:40:01;95995.25;;;-11.36;60.59
59829;BME280;45708;51.848;107.620;2023-11-21T17:45:02;95998.28;;;-11.48;60.60
59829;BME280;45708;51.848;107.620;2023-11-21T17:50:03;96008.22;;;-11.62;60.36
59829;BME280;45708;51.848;107.620;2023-11-21T17:55:05;96029.16;;;-11.54;59.70
59829;BME280;45708;51.848;107.620;2023-11-21T18:00:07;96037.81;;;-11.58;59.56
59829;BME280;45708;51.848;107.620;2023-11-21T18:05:08;96045.81;;;-11.68;59.42
59829;BME280;45708;51.848;107.620;2023-11-21T18:10:09;96053.34;;;-11.64;59.46
59829;BME280;45708;51.848;107.620;2023-11-21T18:15:10;96072.84;;;-11.63;59.95
59829;BME280;45708;51.848;107.620;2023-11-21T18:20:11;96060.59;;;-11.76;59.73
59829;BME280;45708;51.848;107.620;2023-11-21T18:25:12;96061.44;;;-11.75;59.41
59829;BME280;45708;51.848;107.620;2023-11-21T18:30:13;96092.97;;;-11.78;60.43
59829;BME280;45708;51.848;107.620;2023-11-21T18:35:14;96103.72;;;-11.91;60.83
59829;BME280;45708;51.848;107.620;2023-11-21T18:40:15;96120.22;;;-12.02;59.96
59829;BME280;45708;51.848;107.620;2023-11-21T18:45:15;96119.09;;;-12.16;60.87
59829;BME280;45708;51.848;107.620;2023-11-21T18:50:16;96139.72;;;-12.47;60.63
59829;BME280;45708;51.848;107.620;2023-11-21T18:55:17;96142.47;;;-12.77;60.78
59829;BME280;45708;51.848;107.620;2023-11-21T19:00:18;96150.09;;;-13.02;61.05
59829;BME280;45708;51.848;107.620;2023-11-21T19:05:19;96152.34;;;-13.17;61.48
59829;BME280;45708;51.848;107.620;2023-11-21T19:10:20;96162.34;;;-13.38;61.77
59829;BME280;45708;51.848;107.620;2023-11-21T19:15:21;96172.16;;;-13.54;61.71
59829;BME280;45708;51.848;107.620;2023-11-21T19:20:21;96178.31;;;-13.61;61.31
59829;BME280;45708;51.848;107.620;2023-11-21T19:25:22;96177.59;;;-13.66;61.62
59829;BME280;45708;51.848;107.620;2023-11-21T19:30:23;96188.09;;;-13.76;61.61
59829;BME280;45708;51.848;107.620;2023-11-21T19:35:24;96190.78;;;-13.83;61.33
59829;BME280;45708;51.848;107.620;2023-11-21T19:40:25;96203.81;;;-13.93;61.28
59829;BME280;45708;51.848;107.620;2023-11-21T19:45:25;96207.44;;;-14.00;60.32
59829;BME280;45708;51.848;107.620;2023-11-21T19:50:26;96200.19;;;-14.14;60.41
59829;BME280;45708;51.848;107.620;2023-11-21T19:55:27;96208.88;;;-14.23;61.61
59829;BME280;45708;51.848;107.620;2023-11-21T20:00:28;96215.28;;;-14.39;61.17
59829;BME280;45708;51.848;107.620;2023-11-21T20:05:28;96220.78;;;-14.54;61.19
59829;BME280;45708;51.848;107.620;2023-11-21T20:10:29;96237.66;;;-14.53;61.67
59829;BME280;45708;51.848;107.620;2023-11-21T20:15:30;96242.97;;;-14.62;60.53
59829;BME280;45708;51.848;107.620;2023-11-21T20:20:31;96244.31;;;-14.82;60.86
59829;BME280;45708;51.848;107.620;2023-11-21T20:25:32;96248.75;;;-14.90;60.53
59829;BME280;45708;51.848;107.620;2023-11-21T20:30:33;96219.53;;;-15.39;60.24
59829;BME280;45708;51.848;107.620;2023-11-21T20:35:34;96284.66;;;-15.08;61.11
59829;BME280;45708;51.848;107.620;2023-11-21T20:40:35;96306.63;;;-15.07;61.19
59829;BME280;45708;51.848;107.620;2023-11-21T20:45:36;96301.84;;;-15.19;60.76
59829;BME280;45708;51.848;107.620;2023-11-21T20:50:37;96312.84;;;-15.20;60.41
59829;BME280;45708;51.848;107.620;2023-11-21T20:55:39;96313.91;;;-15.30;60.03
59829;BME280;45708;51.848;107.620;2023-11-21T21:00:40;96312.97;;;-15.26;60.52
59829;BME280;45708;51.848;107.620;2023-11-21T21:05:41;96309.81;;;-15.36;60.65
59829;BME280;45708;51.848;107.620;2023-11-21T21:10:42;96321.03;;;-15.48;60.47
59829;BME280;45708;51.848;107.620;2023-11-21T21:15:42;96326.94;;;-15.47;60.39
59829;BME280;45708;51.848;107.620;2023-11-21T21:20:43;96342.16;;;-15.49;60.44
59829;BME280;45708;51.848;107.620;2023-11-21T21:25:44;96353.19;;;-15.51;61.36
59829;BME280;45708;51.848;107.620;2023-11-21T21:30:45;96336.56;;;-15.61;60.72
59829;BME280;45708;51.848;107.620;2023-11-21T21:35:46;96336.78;;;-15.72;60.50
59829;BME280;45708;51.848;107.620;2023-11-21T21:40:47;96317.66;;;-15.87;61.62
59829;BME280;45708;51.848;107.620;2023-11-21T21:45:48;96364.13;;;-15.89;60.50
59829;BME280;45708;51.848;107.620;2023-11-21T21:50:48;96353.38;;;-16.02;60.62
59829;BME280;45708;51.848;107.620;2023-11-21T21:55:49;96376.97;;;-15.98;60.72
59829;BME280;45708;51.848;107.620;2023-11-21T22:00:50;96399.94;;;-16.11;61.52
59829;BME280;45708;51.848;107.620;2023-11-21T22:05:51;96398.22;;;-16.09;60.83
59829;BME280;45708;51.848;107.620;2023-11-21T22:10:52;96407.72;;;-16.20;61.10
59829;BME280;45708;51.848;107.620;2023-11-21T22:15:53;96410.31;;;-16.26;61.31
59829;BME280;45708;51.848;107.620;2023-11-21T22:20:54;96417.84;;;-16.21;61.20
59829;BME280;45708;51.848;107.620;2023-11-21T22:25:55;96416.44;;;-16.38;61.35
59829;BME280;45708;51.848;107.620;2023-11-21T22:30:55;96428.25;;;-16.38;61.51
59829;BME280;45708;51.848;107.620;2023-11-21T22:35:56;96438.44;;;-16.44;60.94
59829;BME280;45708;51.848;107.620;2023-11-21T22:40:57;96433.47;;;-16.49;61.24
59829;BME280;45708;51.848;107.620;2023-11-21T22:45:58;96441.13;;;-16.53;60.89
59829;BME280;45708;51.848;107.620;2023-11-21T22:50:59;96428.56;;;-16.58;60.62
59829;BME280;45708;51.848;107.620;2023-11-21T22:56:00;96443.78;;;-16.61;60.62
59829;BME280;45708;51.848;107.620;2023-11-21T23:01:00;96460.66;;;-16.65;61.08
59829;BME280;45708;51.848;107.620;2023-11-21T23:06:01;96447.47;;;-16.80;60.96
59829;BME280;45708;51.848;107.620;2023-11-21T23:11:02;96465.91;;;-16.74;60.88
59829;BME280;45708;51.848;107.620;2023-11-21T23:16:03;96452.53;;;-16.82;60.99
59829;BME280;45708;51.848;107.620;2023-11-21T23:21:04;96470.25;;;-16.85;61.33
59829;BME280;45708;51.848;107.620;2023-11-21T23:26:05;96494.63;;;-16.79;61.54
59829;BME280;45708;51.848;107.620;2023-11-21T23:31:06;96502.19;;;-16.78;61.03
59829;BME280;45708;51.848;107.620;2023-11-21T23:36:07;96508.09;;;-16.77;61.32
59829;BME280;45708;51.848;107.620;2023-11-21T23:41:08;96513.13;;;-16.77;61.54
59829;BME280;45708;51.848;107.620;2023-11-21T23:46:09;96510.69;;;-16.85;61.12
59829;BME280;45708;51.848;107.620;2023-11-21T23:51:10;96503.25;;;-16.94;61.54
59829;BME280;45708;51.848;107.620;2023-11-21T23:56:11;96532.56;;;-16.82;61.88
